createdAt,value
2017-12-19T00:00:35.355Z,100413
2017-12-19T00:02:45.881Z,100410
2017-12-19T00:04:58.090Z,100404
2017-12-19T00:07:11.008Z,100411
2017-12-19T00:09:19.154Z,100417
2017-12-19T00:11:30.102Z,100415
2017-12-19T00:13:40.011Z,100426
2017-12-19T00:15:51.095Z,100429
2017-12-19T00:18:01.134Z,100408
2017-12-19T00:20:14.643Z,100387
2017-12-19T00:22:36.632Z,100389
2017-12-19T00:24:47.431Z,100400
2017-12-19T00:26:57.842Z,100406
2017-12-19T00:29:04.288Z,100395
2017-12-19T00:31:13.965Z,100396
2017-12-19T00:33:24.976Z,100398
2017-12-19T00:35:33.901Z,100396
2017-12-19T00:37:43.816Z,100376
2017-12-19T00:39:55.295Z,100368
2017-12-19T00:42:01.493Z,100367
2017-12-19T00:44:10.131Z,100371
2017-12-19T00:46:19.246Z,100370
2017-12-19T00:48:29.233Z,100372
2017-12-19T00:50:35.743Z,100391
2017-12-19T00:55:01.288Z,100398
2017-12-19T00:57:07.258Z,100407
2017-12-19T00:59:17.238Z,100421
2017-12-19T01:01:27.585Z,100421
2017-12-19T01:03:34.919Z,100435
2017-12-19T01:05:41.084Z,100431
2017-12-19T01:07:49.246Z,100434
2017-12-19T01:09:54.970Z,100442
2017-12-19T01:12:01.819Z,100445
2017-12-19T01:14:07.902Z,100440
2017-12-19T01:16:13.889Z,100440
2017-12-19T01:18:21.002Z,100452
2017-12-19T01:20:27.658Z,100448
2017-12-19T01:22:33.887Z,100448
2017-12-19T01:24:40.041Z,100438
2017-12-19T01:26:49.897Z,100433
2017-12-19T01:28:56.445Z,100440
2017-12-19T01:31:06.830Z,100434
2017-12-19T01:33:14.370Z,100433
2017-12-19T01:35:32.318Z,100452
2017-12-19T01:37:48.795Z,100458
2017-12-19T01:40:01.939Z,100458
2017-12-19T01:42:10.420Z,100473
2017-12-19T01:44:20.478Z,100476
2017-12-19T01:46:30.274Z,100461
2017-12-19T01:48:37.509Z,100459
2017-12-19T01:50:45.573Z,100466
2017-12-19T01:52:55.134Z,100470
2017-12-19T01:55:02.371Z,100466
2017-12-19T01:57:08.387Z,100475
2017-12-19T01:59:16.306Z,100470
2017-12-19T02:01:25.145Z,100471
2017-12-19T02:03:34.518Z,100471
2017-12-19T02:05:41.579Z,100469
2017-12-19T02:07:48.110Z,100471
2017-12-19T02:10:00.650Z,100465
2017-12-19T02:12:07.889Z,100453
2017-12-19T02:14:13.662Z,100459
2017-12-19T02:16:19.739Z,100450
2017-12-19T02:18:27.318Z,100458
2017-12-19T02:20:36.311Z,100456
2017-12-19T02:22:43.146Z,100454
2017-12-19T02:24:48.801Z,100451
2017-12-19T02:26:55.798Z,100456
2017-12-19T02:29:04.230Z,100467
2017-12-19T02:31:11.099Z,100463
2017-12-19T02:33:20.533Z,100456
2017-12-19T02:35:26.488Z,100464
2017-12-19T02:37:35.322Z,100468
2017-12-19T02:39:41.732Z,100466
2017-12-19T02:41:52.632Z,100466
2017-12-19T02:43:58.469Z,100470
2017-12-19T02:46:11.089Z,100467
2017-12-19T02:48:19.622Z,100462
2017-12-19T02:50:30.131Z,100462
2017-12-19T02:52:37.739Z,100452
2017-12-19T02:54:44.792Z,100466
2017-12-19T02:56:51.307Z,100467
2017-12-19T02:59:01.729Z,100466
2017-12-19T03:01:07.790Z,100461
2017-12-19T03:03:13.878Z,100458
2017-12-19T03:05:22.292Z,100451
2017-12-19T03:07:27.990Z,100461
2017-12-19T03:09:35.607Z,100464
2017-12-19T03:11:42.903Z,100463
2017-12-19T03:13:49.865Z,100465
2017-12-19T03:15:55.407Z,100467
2017-12-19T03:18:02.539Z,100480
2017-12-19T03:20:11.678Z,100475
2017-12-19T03:22:17.164Z,100478
2017-12-19T03:24:25.141Z,100479
2017-12-19T03:26:32.444Z,100464
2017-12-19T04:12:01.030Z,100540
2017-12-19T04:14:09.684Z,100536
2017-12-19T04:16:18.152Z,100537
2017-12-19T04:18:27.743Z,100535
2017-12-19T04:20:33.142Z,100535
2017-12-19T04:22:38.592Z,100527
2017-12-19T04:24:43.947Z,100529
2017-12-19T04:26:49.762Z,100524
2017-12-19T04:28:55.020Z,100524
2017-12-19T04:31:00.378Z,100525
2017-12-19T04:33:12.029Z,100525
2017-12-19T04:35:17.693Z,100525
2017-12-19T04:37:23.741Z,100523
2017-12-19T04:39:29.331Z,100512
2017-12-19T04:41:35.389Z,100504
2017-12-19T04:43:41.512Z,100509
2017-12-19T04:45:47.982Z,100523
2017-12-19T04:47:54.266Z,100521
2017-12-19T04:50:00.592Z,100521
2017-12-19T04:52:06.500Z,100524
2017-12-19T04:54:13.536Z,100532
2017-12-19T04:56:20.272Z,100518
2017-12-19T04:58:26.092Z,100530
2017-12-19T05:00:33.707Z,100525
2017-12-19T05:02:39.297Z,100534
2017-12-19T05:04:44.551Z,100529
2017-12-19T05:06:49.990Z,100529
2017-12-19T05:08:55.778Z,100533
2017-12-19T05:11:02.357Z,100530
2017-12-19T05:13:07.875Z,100542
2017-12-19T05:15:13.334Z,100548
2017-12-19T05:17:18.927Z,100549
2017-12-19T05:19:24.076Z,100546
2017-12-19T05:21:30.320Z,100554
2017-12-19T05:23:37.395Z,100551
2017-12-19T05:25:42.812Z,100558
2017-12-19T05:27:48.154Z,100546
2017-12-19T05:29:53.589Z,100549
2017-12-19T05:31:59.288Z,100551
2017-12-19T05:34:05.340Z,100553
2017-12-19T05:36:10.744Z,100562
2017-12-19T05:38:18.134Z,100565
2017-12-19T05:40:24.809Z,100573
2017-12-19T05:42:31.530Z,100578
2017-12-19T05:44:38.695Z,100579
2017-12-19T05:46:45.857Z,100581
2017-12-19T05:48:56.649Z,100582
2017-12-19T05:51:06.306Z,100571
2017-12-19T05:53:15.947Z,100589
2017-12-19T05:55:22.948Z,100594
2017-12-19T05:57:28.979Z,100586
2017-12-19T05:59:35.917Z,100574
2017-12-19T06:01:43.895Z,100569
2017-12-19T06:03:49.583Z,100570
2017-12-19T06:06:04.130Z,100571
2017-12-19T06:08:09.988Z,100581
2017-12-19T06:10:16.608Z,100588
2017-12-19T06:12:27.161Z,100581
2017-12-19T06:14:36.847Z,100570
2017-12-19T06:16:47.152Z,100567
2017-12-19T06:18:59.024Z,100572
2017-12-19T06:21:06.762Z,100580
2017-12-19T06:23:17.174Z,100566
2017-12-19T06:25:24.160Z,100566
2017-12-19T06:27:30.573Z,100582
2017-12-19T06:29:36.813Z,100576
2017-12-19T06:31:45.111Z,100568
2017-12-19T06:33:52.476Z,100552
2017-12-19T06:36:02.461Z,100550
2017-12-19T06:38:08.666Z,100557
2017-12-19T06:40:15.911Z,100543
2017-12-19T06:42:29.329Z,100548
2017-12-19T06:44:35.198Z,100573
2017-12-19T06:46:56.679Z,100569
2017-12-19T06:49:04.025Z,100559
2017-12-19T06:51:11.086Z,100556
2017-12-19T06:53:17.412Z,100561
2017-12-19T06:55:26.720Z,100563
2017-12-19T06:57:35.699Z,100560
2017-12-19T06:59:44.768Z,100571
2017-12-19T07:01:52.762Z,100579
2017-12-19T07:04:01.102Z,100576
2017-12-19T07:06:15.493Z,100572
2017-12-19T07:08:25.241Z,100572
2017-12-19T07:10:43.194Z,100584
2017-12-19T07:12:48.925Z,100574
2017-12-19T07:14:54.846Z,100566
2017-12-19T07:17:02.105Z,100575
2017-12-19T07:19:08.233Z,100579
2017-12-19T07:21:15.938Z,100575
2017-12-19T07:23:25.583Z,100577
2017-12-19T07:25:30.979Z,100592
2017-12-19T07:27:37.402Z,100598
2017-12-19T07:29:46.047Z,100585
2017-12-19T07:31:53.184Z,100587
2017-12-19T07:34:00.374Z,100583
2017-12-19T07:36:07.515Z,100571
2017-12-19T07:38:13.775Z,100583
2017-12-19T07:40:29.561Z,100584
2017-12-19T07:42:35.064Z,100596
2017-12-19T07:44:42.247Z,100602
2017-12-19T07:46:49.492Z,100621
2017-12-19T07:48:57.678Z,100632
2017-12-19T07:51:04.939Z,100624
2017-12-19T07:53:13.703Z,100637
2017-12-19T07:55:21.883Z,100625
2017-12-19T07:57:27.829Z,100617
2017-12-19T07:59:38.489Z,100619
2017-12-19T08:01:44.963Z,100634
2017-12-19T08:03:52.089Z,100635
2017-12-19T08:05:58.020Z,100646
2017-12-19T08:08:03.834Z,100663
2017-12-19T08:10:09.596Z,100663
2017-12-19T08:12:15.209Z,100655
2017-12-19T08:14:21.176Z,100649
2017-12-19T08:16:27.136Z,100655
2017-12-19T08:18:36.232Z,100650
2017-12-19T08:20:42.332Z,100652
2017-12-19T08:22:49.204Z,100655
2017-12-19T08:24:55.485Z,100666
2017-12-19T08:27:01.353Z,100668
2017-12-19T08:29:07.208Z,100665
2017-12-19T08:31:13.332Z,100664
2017-12-19T08:33:23.439Z,100669
2017-12-19T08:35:37.954Z,100657
2017-12-19T08:37:52.061Z,100644
2017-12-19T08:39:59.898Z,100649
2017-12-19T08:42:12.001Z,100655
2017-12-19T08:44:22.366Z,100648
2017-12-19T08:46:30.932Z,100640
2017-12-19T08:48:36.794Z,100646
2017-12-19T08:50:43.739Z,100641
2017-12-19T08:52:53.049Z,100646
2017-12-19T08:55:08.175Z,100649
2017-12-19T08:57:21.312Z,100657
2017-12-19T08:59:35.360Z,100646
2017-12-19T09:01:53.787Z,100657
2017-12-19T09:04:07.116Z,100665
2017-12-19T09:06:24.459Z,100674
2017-12-19T09:08:41.386Z,100671
2017-12-19T09:10:53.714Z,100666
2017-12-19T09:13:03.680Z,100675
2017-12-19T09:15:29.954Z,100679
2017-12-19T09:17:43.655Z,100683
2017-12-19T09:19:51.481Z,100685
2017-12-19T09:24:23.477Z,100699
2017-12-19T09:26:34.087Z,100706
2017-12-19T09:28:56.410Z,100709
2017-12-19T09:31:09.222Z,100704
2017-12-19T09:33:17.159Z,100705
2017-12-19T09:35:33.428Z,100706
2017-12-19T09:37:45.728Z,100721
2017-12-19T09:39:58.130Z,100724
2017-12-19T09:42:11.320Z,100710
2017-12-19T09:44:33.815Z,100705
2017-12-19T09:46:55.268Z,100703
2017-12-19T09:49:06.434Z,100693
2017-12-19T09:51:17.628Z,100711
2017-12-19T09:53:31.012Z,100689
2017-12-19T09:55:39.700Z,100697
2017-12-19T09:57:51.272Z,100702
2017-12-19T10:00:00.924Z,100705
2017-12-19T10:02:11.007Z,100713
2017-12-19T10:04:23.274Z,100713
2017-12-19T10:06:36.482Z,100717
2017-12-19T10:08:52.335Z,100711
2017-12-19T10:11:03.602Z,100713
2017-12-19T10:13:25.364Z,100707
2017-12-19T10:15:35.221Z,100700
2017-12-19T10:17:54.867Z,100716
2017-12-19T10:20:09.734Z,100711
2017-12-19T10:22:18.254Z,100704
2017-12-19T10:24:24.421Z,100692
2017-12-19T10:26:32.217Z,100690
2017-12-19T10:28:44.279Z,100684
2017-12-19T10:31:03.300Z,100683
2017-12-19T10:33:20.043Z,100681
2017-12-19T10:35:31.703Z,100677
2017-12-19T10:37:42.327Z,100710
2017-12-19T10:40:00.709Z,100689
2017-12-19T10:42:15.618Z,100691
2017-12-19T10:46:38.125Z,100695
2017-12-19T10:48:49.894Z,100677
2017-12-19T10:51:13.780Z,100680
2017-12-19T10:53:27.207Z,100666
2017-12-19T10:55:45.482Z,100680
2017-12-19T10:57:56.337Z,100677
2017-12-19T11:00:13.604Z,100666
2017-12-19T11:02:27.802Z,100666
2017-12-19T11:04:38.791Z,100669
2017-12-19T11:06:49.192Z,100677
2017-12-19T11:09:03.547Z,100673
2017-12-19T11:11:11.486Z,100674
2017-12-19T11:13:21.823Z,100671
2017-12-19T11:15:35.544Z,100665
2017-12-19T11:17:44.310Z,100680
2017-12-19T11:19:55.600Z,100661
2017-12-19T11:22:03.822Z,100662
2017-12-19T11:24:17.498Z,100657
2017-12-19T11:26:25.880Z,100656
2017-12-19T11:28:43.040Z,100660
2017-12-19T11:31:03.432Z,100653
2017-12-19T11:36:55.055Z,100634
2017-12-19T11:39:06.668Z,100650
2017-12-19T11:41:18.071Z,100646
2017-12-19T11:43:40.170Z,100643
2017-12-19T11:45:50.756Z,100653
2017-12-19T11:48:04.908Z,100656
2017-12-19T11:50:15.927Z,100652
2017-12-19T11:52:29.739Z,100646
2017-12-19T11:54:37.523Z,100664
2017-12-19T11:56:44.003Z,100649
2017-12-19T11:58:51.880Z,100650
2017-12-19T12:01:03.175Z,100654
2017-12-19T12:03:10.199Z,100650
2017-12-19T12:05:20.561Z,100642
2017-12-19T12:07:36.177Z,100639
2017-12-19T12:09:42.411Z,100636
2017-12-19T12:11:50.588Z,100641
2017-12-19T12:13:57.211Z,100643
2017-12-19T12:16:07.703Z,100648
2017-12-19T12:18:16.443Z,100639
2017-12-19T12:20:24.916Z,100635
2017-12-19T12:22:37.402Z,100624
2017-12-19T12:24:45.678Z,100624
2017-12-19T12:26:58.956Z,100621
2017-12-19T12:29:06.443Z,100616
2017-12-19T12:31:20.310Z,100624
2017-12-19T12:33:37.898Z,100628
2017-12-19T12:35:49.984Z,100634
2017-12-19T12:37:59.509Z,100637
2017-12-19T12:40:12.419Z,100640
2017-12-19T12:42:24.292Z,100636
2017-12-19T12:44:36.101Z,100621
2017-12-19T12:46:47.286Z,100617
2017-12-19T12:48:58.580Z,100626
2017-12-19T12:51:12.652Z,100625
2017-12-19T12:53:21.545Z,100612
2017-12-19T12:55:31.293Z,100613
2017-12-19T12:57:52.836Z,100613
2017-12-19T13:00:10.844Z,100609
2017-12-19T13:02:23.988Z,100599
2017-12-19T13:06:59.229Z,100613
2017-12-19T13:09:11.050Z,100597
2017-12-19T13:11:33.052Z,100608
2017-12-19T13:13:44.548Z,100613
2017-12-19T13:15:59.943Z,100613
2017-12-19T13:18:09.164Z,100621
2017-12-19T13:20:26.200Z,100623
2017-12-19T13:24:53.234Z,100609
2017-12-19T13:27:11.531Z,100600
2017-12-19T13:29:25.226Z,100606
2017-12-19T13:31:37.422Z,100605
2017-12-19T13:33:47.657Z,100605
2017-12-19T13:35:57.007Z,100624
2017-12-19T13:38:06.830Z,100622
2017-12-19T13:40:17.634Z,100619
2017-12-19T13:42:25.027Z,100605
2017-12-19T13:44:31.917Z,100608
2017-12-19T13:46:42.937Z,100594
2017-12-19T13:48:49.305Z,100577
2017-12-19T13:51:01.415Z,100575
2017-12-19T13:53:10.118Z,100571
2017-12-19T13:55:18.639Z,100568
2017-12-19T13:57:34.320Z,100585
2017-12-19T13:59:46.861Z,100600
2017-12-19T14:01:55.131Z,100600
2017-12-19T14:04:10.671Z,100588
2017-12-19T14:06:17.196Z,100605
2017-12-19T14:08:23.251Z,100607
2017-12-19T14:10:30.448Z,100605
2017-12-19T14:12:39.455Z,100612
2017-12-19T14:14:49.438Z,100589
2017-12-19T14:16:59.271Z,100612
2017-12-19T14:19:07.489Z,100612
2017-12-19T14:21:13.163Z,100603
2017-12-19T14:23:22.944Z,100613
2017-12-19T14:25:29.519Z,100611
2017-12-19T14:27:36.549Z,100636
2017-12-19T14:29:43.744Z,100632
2017-12-19T14:31:49.821Z,100619
2017-12-19T14:33:57.213Z,100628
2017-12-19T14:36:06.239Z,100622
2017-12-19T14:38:12.277Z,100620
2017-12-19T14:40:19.628Z,100612
2017-12-19T14:42:26.104Z,100616
2017-12-19T14:44:33.643Z,100631
2017-12-19T14:46:40.877Z,100615
2017-12-19T14:48:48.804Z,100607
2017-12-19T14:51:00.805Z,100626
2017-12-19T14:53:07.443Z,100629
2017-12-19T14:55:15.342Z,100617
2017-12-19T14:57:23.491Z,100621
2017-12-19T14:59:29.651Z,100637
2017-12-19T15:01:36.889Z,100623
2017-12-19T15:03:43.310Z,100629
2017-12-19T15:05:52.367Z,100623
2017-12-19T15:08:02.772Z,100625
2017-12-19T15:10:19.775Z,100630
2017-12-19T15:12:33.378Z,100631
2017-12-19T15:14:44.056Z,100631
2017-12-19T15:16:53.342Z,100623
2017-12-19T15:19:09.365Z,100629
2017-12-19T15:21:22.847Z,100639
2017-12-19T15:23:32.242Z,100634
2017-12-19T15:25:43.330Z,100635
2017-12-19T15:27:51.183Z,100635
2017-12-19T15:30:00.883Z,100637
2017-12-19T15:32:07.427Z,100636
2017-12-19T15:34:16.366Z,100640
2017-12-19T15:36:26.860Z,100649
2017-12-19T15:38:40.012Z,100645
2017-12-19T15:40:52.414Z,100650
2017-12-19T15:43:04.337Z,100642
2017-12-19T15:45:16.086Z,100651
2017-12-19T15:47:26.239Z,100646
2017-12-19T15:49:39.156Z,100647
2017-12-19T15:51:52.514Z,100646
2017-12-19T15:54:01.804Z,100642
2017-12-19T15:56:16.434Z,100643
2017-12-19T15:58:29.918Z,100637
2017-12-19T16:00:49.584Z,100633
2017-12-19T16:02:59.670Z,100643
2017-12-19T16:05:20.550Z,100635
2017-12-19T16:07:33.716Z,100634
2017-12-19T16:09:44.245Z,100628
2017-12-19T16:11:54.503Z,100635
2017-12-19T16:14:18.933Z,100634
2017-12-19T16:16:27.825Z,100631
2017-12-19T16:18:37.900Z,100626
2017-12-19T16:20:44.610Z,100639
2017-12-19T16:22:55.476Z,100639
2017-12-19T16:25:15.025Z,100634
2017-12-19T16:27:24.082Z,100656
2017-12-19T16:29:32.272Z,100653
2017-12-19T16:31:42.526Z,100660
2017-12-19T16:33:51.054Z,100662
2017-12-19T16:36:04.969Z,100654
2017-12-19T16:38:22.072Z,100653
2017-12-19T16:40:31.075Z,100649
2017-12-19T16:42:48.151Z,100647
2017-12-19T16:45:03.196Z,100651
2017-12-19T16:47:18.541Z,100651
2017-12-19T16:49:25.054Z,100659
2017-12-19T16:51:36.874Z,100652
2017-12-19T16:53:50.458Z,100653
2017-12-19T16:56:03.415Z,100659
2017-12-19T16:58:14.204Z,100652
2017-12-19T17:00:24.805Z,100654
2017-12-19T17:02:34.031Z,100658
2017-12-19T17:04:42.435Z,100660
2017-12-19T17:06:54.828Z,100653
2017-12-19T17:09:04.572Z,100661
2017-12-19T17:11:19.331Z,100653
2017-12-19T17:13:31.892Z,100651
2017-12-19T17:15:41.487Z,100650
2017-12-19T17:17:51.389Z,100645
2017-12-19T17:19:59.890Z,100657
2017-12-19T17:22:05.681Z,100649
2017-12-19T17:24:15.877Z,100654
2017-12-19T17:26:28.692Z,100646
2017-12-19T17:28:37.548Z,100650
2017-12-19T17:30:51.139Z,100644
2017-12-19T17:33:03.429Z,100649
2017-12-19T17:35:13.668Z,100645
2017-12-19T17:37:25.980Z,100642
2017-12-19T17:39:35.903Z,100644
2017-12-19T17:41:44.930Z,100651
2017-12-19T17:43:53.368Z,100647
2017-12-19T17:46:10.898Z,100649
2017-12-19T17:48:19.819Z,100651
2017-12-19T17:50:29.943Z,100657
2017-12-19T17:52:37.214Z,100659
2017-12-19T17:54:43.845Z,100661
2017-12-19T17:56:56.855Z,100660
2017-12-19T17:59:07.286Z,100657
2017-12-19T18:01:17.317Z,100658
2017-12-19T18:03:25.636Z,100665
2017-12-19T18:05:33.521Z,100652
2017-12-19T18:07:44.327Z,100651
2017-12-19T18:09:53.798Z,100649
2017-12-19T18:12:02.119Z,100637
2017-12-19T18:14:13.702Z,100640
2017-12-19T18:16:25.654Z,100648
2017-12-19T18:18:41.244Z,100646
2017-12-19T18:20:57.063Z,100640
2017-12-19T18:23:11.182Z,100643
2017-12-19T18:25:29.934Z,100641
2017-12-19T18:27:45.562Z,100641
2017-12-19T18:29:54.027Z,100652
2017-12-19T18:32:19.804Z,100656
2017-12-19T18:34:36.225Z,100658
2017-12-19T18:36:58.429Z,100657
2017-12-19T18:39:08.638Z,100656
2017-12-19T18:41:18.209Z,100658
2017-12-19T18:43:37.472Z,100657
2017-12-19T18:45:50.017Z,100651
2017-12-19T18:48:02.557Z,100654
2017-12-19T18:50:12.074Z,100652
2017-12-19T18:52:25.058Z,100640
2017-12-19T18:54:41.302Z,100638
2017-12-19T18:56:47.658Z,100635
2017-12-19T19:01:12.939Z,100634
2017-12-19T19:03:27.590Z,100634
2017-12-19T19:05:44.053Z,100636
2017-12-19T19:08:07.290Z,100621
2017-12-19T19:10:34.899Z,100619
2017-12-19T19:12:52.336Z,100623
2017-12-19T19:17:28.680Z,100618
2017-12-19T19:19:41.490Z,100621
2017-12-19T19:21:51.519Z,100610
2017-12-19T19:24:00.491Z,100609
2017-12-19T19:26:16.611Z,100604
2017-12-19T19:28:25.425Z,100607
2017-12-19T19:30:35.615Z,100614
2017-12-19T19:32:43.061Z,100610
2017-12-19T19:34:51.218Z,100618
2017-12-19T19:36:58.654Z,100620
2017-12-19T19:39:07.381Z,100630
2017-12-19T19:41:14.439Z,100622
2017-12-19T19:43:23.143Z,100618
2017-12-19T19:45:37.749Z,100628
2017-12-19T19:47:49.647Z,100621
2017-12-19T19:49:58.193Z,100624
2017-12-19T19:52:27.481Z,100637
2017-12-19T19:54:35.070Z,100630
2017-12-19T19:56:47.738Z,100632
2017-12-19T19:58:55.761Z,100636
2017-12-19T20:01:10.091Z,100637
2017-12-19T20:03:19.459Z,100643
2017-12-19T20:05:26.180Z,100642
2017-12-19T20:07:32.793Z,100640
2017-12-19T20:09:39.509Z,100639
2017-12-19T20:11:46.715Z,100637
2017-12-19T20:13:55.989Z,100637
2017-12-19T20:16:07.760Z,100640
2017-12-19T20:18:17.050Z,100629
2017-12-19T20:20:23.854Z,100638
2017-12-19T20:22:31.495Z,100630
2017-12-19T20:24:43.573Z,100631
2017-12-19T20:26:55.421Z,100626
2017-12-19T20:29:05.901Z,100624
2017-12-19T20:31:15.943Z,100638
2017-12-19T20:33:30.512Z,100629
2017-12-19T20:35:42.426Z,100636
2017-12-19T20:37:53.353Z,100635
2017-12-19T20:40:13.427Z,100642
2017-12-19T20:42:24.883Z,100639
2017-12-19T20:44:35.549Z,100649
2017-12-19T20:46:58.055Z,100650
2017-12-19T20:49:12.663Z,100649
2017-12-19T20:51:31.762Z,100650
2017-12-19T20:53:43.395Z,100657
2017-12-19T20:55:51.937Z,100656
2017-12-19T20:57:59.246Z,100659
2017-12-19T21:00:18.001Z,100664
2017-12-19T21:02:25.013Z,100671
2017-12-19T21:04:32.379Z,100665
2017-12-19T21:08:55.677Z,100664
2017-12-19T21:11:09.459Z,100661
2017-12-19T21:13:20.498Z,100661
2017-12-19T21:15:34.604Z,100659
2017-12-19T21:17:46.183Z,100661
2017-12-19T21:20:03.626Z,100667
2017-12-19T21:22:16.907Z,100666
2017-12-19T21:24:28.348Z,100669
2017-12-19T21:26:38.129Z,100664
2017-12-19T21:28:51.124Z,100672
2017-12-19T21:31:01.738Z,100677
2017-12-19T21:33:12.962Z,100671
2017-12-19T21:35:21.366Z,100677
2017-12-19T21:37:29.535Z,100681
2017-12-19T21:39:38.332Z,100674
2017-12-19T21:41:53.246Z,100671
2017-12-19T21:44:03.411Z,100679
2017-12-19T21:46:15.348Z,100682
2017-12-19T21:48:30.084Z,100690
2017-12-19T21:50:39.461Z,100689
2017-12-19T21:52:53.608Z,100692
2017-12-19T21:55:04.240Z,100695
2017-12-19T21:57:13.977Z,100698
2017-12-19T21:59:23.560Z,100698
2017-12-19T22:01:32.129Z,100700
2017-12-19T22:03:40.427Z,100702
2017-12-19T22:05:50.206Z,100702
2017-12-19T22:07:58.162Z,100705
2017-12-19T22:10:07.464Z,100706
2017-12-19T22:12:15.403Z,100704
2017-12-19T22:14:23.039Z,100704
2017-12-19T22:16:29.912Z,100700
2017-12-19T22:18:40.371Z,100711
2017-12-19T22:20:48.448Z,100712
2017-12-19T22:22:58.578Z,100705
2017-12-19T22:25:11.794Z,100705
2017-12-19T22:27:23.126Z,100708
2017-12-19T22:29:29.592Z,100699
2017-12-19T22:31:37.910Z,100696
2017-12-19T22:33:50.565Z,100700
2017-12-19T22:35:57.061Z,100697
2017-12-19T22:38:05.818Z,100694
2017-12-19T22:40:14.718Z,100692
2017-12-19T22:42:21.548Z,100702
2017-12-19T22:44:28.744Z,100693
2017-12-19T22:46:35.466Z,100692
2017-12-19T22:48:43.490Z,100697
2017-12-19T22:50:49.473Z,100694
2017-12-19T22:52:55.388Z,100689
2017-12-19T22:55:01.752Z,100693
2017-12-19T22:57:08.455Z,100684
2017-12-19T22:59:19.513Z,100675
2017-12-19T23:01:33.014Z,100672
2017-12-19T23:03:41.961Z,100668
2017-12-19T23:05:59.869Z,100668
2017-12-19T23:08:06.291Z,100671
2017-12-19T23:10:13.782Z,100666
2017-12-19T23:12:22.467Z,100666
2017-12-19T23:14:30.309Z,100661
2017-12-19T23:16:38.208Z,100658
2017-12-19T23:18:45.268Z,100659
2017-12-19T23:20:51.724Z,100671
2017-12-19T23:23:00.035Z,100664
2017-12-19T23:25:11.900Z,100669
2017-12-19T23:27:20.080Z,100659
2017-12-19T23:29:32.553Z,100662
2017-12-19T23:31:40.984Z,100662
2017-12-19T23:33:48.426Z,100657
2017-12-19T23:35:57.168Z,100660
2017-12-19T23:38:05.621Z,100649
2017-12-19T23:40:13.234Z,100656
2017-12-19T23:42:20.251Z,100656
2017-12-19T23:44:29.881Z,100664
2017-12-19T23:46:38.238Z,100662
2017-12-19T23:48:45.004Z,100663
2017-12-19T23:50:53.241Z,100669
2017-12-19T23:53:02.323Z,100664
2017-12-19T23:55:09.071Z,100658
2017-12-19T23:57:16.614Z,100663
2017-12-19T23:59:24.820Z,100658
